sensor_id;sensor_type;location;lat;lon;timestamp;pressure;altitude;pressure_sealevel;temperature;humidity
8160;BME280;27404;52.398;9.646;2023-09-12T00:00:19;100578.97;;;20.07;100.00
8160;BME280;27404;52.398;9.646;2023-09-12T00:02:44;100604.88;;;20.02;100.00
8160;BME280;27404;52.398;9.646;2023-09-12T00:05:11;100624.31;;;20.02;100.00
8160;BME280;27404;52.398;9.646;2023-09-12T00:07:37;100629.91;;;19.97;100.00
8160;BME280;27404;52.398;9.646;2023-09-12T00:10:03;100634.63;;;19.96;100.00
8160;BME280;27404;52.398;9.646;2023-09-12T00:12:28;100622.19;;;19.94;100.00
8160;BME280;27404;52.398;9.646;2023-09-12T00:14:54;100611.16;;;19.89;100.00
8160;BME280;27404;52.398;9.646;2023-09-12T00:17:19;100605.44;;;19.80;100.00
8160;BME280;27404;52.398;9.646;2023-09-12T00:19:45;100595.06;;;19.91;100.00
8160;BME280;27404;52.398;9.646;2023-09-12T00:22:10;100580.88;;;19.92;100.00
8160;BME280;27404;52.398;9.646;2023-09-12T00:24:36;100575.69;;;19.86;100.00
8160;BME280;27404;52.398;9.646;2023-09-12T00:27:03;100567.44;;;19.80;100.00
8160;BME280;27404;52.398;9.646;2023-09-12T00:29:30;100561.66;;;19.77;100.00
8160;BME280;27404;52.398;9.646;2023-09-12T00:31:55;100562.47;;;19.77;100.00
8160;BME280;27404;52.398;9.646;2023-09-12T00:34:21;100561.88;;;19.80;100.00
8160;BME280;27404;52.398;9.646;2023-09-12T00:36:46;100539.69;;;19.80;100.00
8160;BME280;27404;52.398;9.646;2023-09-12T00:39:12;100538.94;;;19.75;100.00
8160;BME280;27404;52.398;9.646;2023-09-12T00:41:37;100539.84;;;19.70;100.00
8160;BME280;27404;52.398;9.646;2023-09-12T00:44:02;100535.19;;;19.65;100.00
8160;BME280;27404;52.398;9.646;2023-09-12T00:46:28;100533.84;;;19.63;100.00
8160;BME280;27404;52.398;9.646;2023-09-12T00:48:55;100528.28;;;19.63;100.00
8160;BME280;27404;52.398;9.646;2023-09-12T00:51:24;100524.47;;;19.59;100.00
8160;BME280;27404;52.398;9.646;2023-09-12T00:53:51;100518.13;;;19.58;100.00
8160;BME280;27404;52.398;9.646;2023-09-12T00:56:16;100515.63;;;19.57;100.00
8160;BME280;27404;52.398;9.646;2023-09-12T00:58:42;100512.25;;;19.60;100.00
8160;BME280;27404;52.398;9.646;2023-09-12T01:01:08;100512.31;;;19.54;100.00
8160;BME280;27404;52.398;9.646;2023-09-12T01:03:34;100512.94;;;19.51;100.00
8160;BME280;27404;52.398;9.646;2023-09-12T01:06:01;100505.81;;;19.45;100.00
8160;BME280;27404;52.398;9.646;2023-09-12T01:08:27;100523.66;;;19.39;100.00
8160;BME280;27404;52.398;9.646;2023-09-12T01:10:55;100517.34;;;19.33;100.00
8160;BME280;27404;52.398;9.646;2023-09-12T01:13:23;100518.25;;;19.29;100.00
8160;BME280;27404;52.398;9.646;2023-09-12T01:15:48;100513.03;;;19.22;100.00
8160;BME280;27404;52.398;9.646;2023-09-12T01:18:14;100511.78;;;19.14;100.00
8160;BME280;27404;52.398;9.646;2023-09-12T01:20:42;100516.25;;;19.10;100.00
8160;BME280;27404;52.398;9.646;2023-09-12T01:23:39;100531.81;;;19.06;100.00
8160;BME280;27404;52.398;9.646;2023-09-12T01:29:06;100539.97;;;18.97;100.00
8160;BME280;27404;52.398;9.646;2023-09-12T01:31:31;100541.91;;;18.97;100.00
8160;BME280;27404;52.398;9.646;2023-09-12T01:34:08;100543.56;;;18.92;100.00
8160;BME280;27404;52.398;9.646;2023-09-12T01:36:34;100539.16;;;18.91;100.00
8160;BME280;27404;52.398;9.646;2023-09-12T01:38:59;100542.50;;;18.88;100.00
8160;BME280;27404;52.398;9.646;2023-09-12T01:41:26;100540.06;;;18.87;100.00
8160;BME280;27404;52.398;9.646;2023-09-12T01:43:52;100545.91;;;18.85;100.00
8160;BME280;27404;52.398;9.646;2023-09-12T01:46:18;100549.25;;;18.82;100.00
8160;BME280;27404;52.398;9.646;2023-09-12T01:48:46;100552.59;;;18.79;100.00
8160;BME280;27404;52.398;9.646;2023-09-12T01:51:16;100556.78;;;18.76;100.00
8160;BME280;27404;52.398;9.646;2023-09-12T01:53:45;100548.53;;;18.71;100.00
8160;BME280;27404;52.398;9.646;2023-09-12T01:56:12;100564.31;;;18.71;100.00
8160;BME280;27404;52.398;9.646;2023-09-12T01:58:38;100550.22;;;18.67;100.00
8160;BME280;27404;52.398;9.646;2023-09-12T02:01:04;100557.41;;;18.68;100.00
8160;BME280;27404;52.398;9.646;2023-09-12T02:03:29;100559.91;;;18.70;100.00
8160;BME280;27404;52.398;9.646;2023-09-12T02:05:54;100561.28;;;18.67;100.00
8160;BME280;27404;52.398;9.646;2023-09-12T02:08:20;100564.66;;;18.64;100.00
8160;BME280;27404;52.398;9.646;2023-09-12T02:10:45;100573.50;;;18.66;100.00
8160;BME280;27404;52.398;9.646;2023-09-12T02:13:11;100574.88;;;18.69;100.00
8160;BME280;27404;52.398;9.646;2023-09-12T02:15:36;100582.59;;;18.72;100.00
8160;BME280;27404;52.398;9.646;2023-09-12T02:18:02;100578.97;;;18.71;100.00
8160;BME280;27404;52.398;9.646;2023-09-12T02:20:28;100592.00;;;18.71;100.00
8160;BME280;27404;52.398;9.646;2023-09-12T02:22:53;100594.47;;;18.72;100.00
8160;BME280;27404;52.398;9.646;2023-09-12T02:25:19;100610.72;;;18.84;100.00
8160;BME280;27404;52.398;9.646;2023-09-12T02:27:44;100610.13;;;18.87;100.00
8160;BME280;27404;52.398;9.646;2023-09-12T02:30:10;100623.03;;;19.02;100.00
8160;BME280;27404;52.398;9.646;2023-09-12T02:32:35;100620.72;;;19.09;100.00
8160;BME280;27404;52.398;9.646;2023-09-12T02:35:01;100618.19;;;19.13;100.00
8160;BME280;27404;52.398;9.646;2023-09-12T02:37:26;100622.06;;;19.12;100.00
8160;BME280;27404;52.398;9.646;2023-09-12T02:39:52;100615.06;;;19.20;100.00
8160;BME280;27404;52.398;9.646;2023-09-12T02:42:17;100621.97;;;19.22;100.00
8160;BME280;27404;52.398;9.646;2023-09-12T02:44:43;100622.19;;;19.26;100.00
8160;BME280;27404;52.398;9.646;2023-09-12T02:47:08;100615.25;;;19.29;100.00
8160;BME280;27404;52.398;9.646;2023-09-12T02:49:34;100616.38;;;19.28;100.00
8160;BME280;27404;52.398;9.646;2023-09-12T02:51:59;100620.25;;;19.27;100.00
8160;BME280;27404;52.398;9.646;2023-09-12T02:54:25;100603.31;;;19.28;100.00
8160;BME280;27404;52.398;9.646;2023-09-12T02:56:50;100605.50;;;19.31;100.00
8160;BME280;27404;52.398;9.646;2023-09-12T02:59:15;100591.13;;;19.29;100.00
8160;BME280;27404;52.398;9.646;2023-09-12T03:01:41;100578.97;;;19.25;100.00
8160;BME280;27404;52.398;9.646;2023-09-12T03:04:06;100566.53;;;19.22;100.00
8160;BME280;27404;52.398;9.646;2023-09-12T03:06:32;100556.88;;;19.20;100.00
8160;BME280;27404;52.398;9.646;2023-09-12T03:08:58;100551.50;;;19.29;100.00
8160;BME280;27404;52.398;9.646;2023-09-12T03:11:26;100557.09;;;19.23;100.00
8160;BME280;27404;52.398;9.646;2023-09-12T03:13:52;100554.13;;;19.20;100.00
8160;BME280;27404;52.398;9.646;2023-09-12T03:16:18;100572.16;;;19.17;100.00
8160;BME280;27404;52.398;9.646;2023-09-12T03:18:43;100579.41;;;19.13;100.00
8160;BME280;27404;52.398;9.646;2023-09-12T03:21:09;100586.06;;;19.12;100.00
8160;BME280;27404;52.398;9.646;2023-09-12T03:23:34;100586.63;;;19.09;100.00
8160;BME280;27404;52.398;9.646;2023-09-12T03:26:03;100590.84;;;19.06;100.00
8160;BME280;27404;52.398;9.646;2023-09-12T03:28:30;100599.97;;;19.07;100.00
8160;BME280;27404;52.398;9.646;2023-09-12T03:31:12;100618.25;;;19.08;100.00
8160;BME280;27404;52.398;9.646;2023-09-12T03:33:39;100631.81;;;19.09;100.00
8160;BME280;27404;52.398;9.646;2023-09-12T03:36:08;100669.66;;;19.19;100.00
8160;BME280;27404;52.398;9.646;2023-09-12T03:38:34;100684.28;;;19.25;100.00
8160;BME280;27404;52.398;9.646;2023-09-12T03:41:00;100682.03;;;19.27;100.00
8160;BME280;27404;52.398;9.646;2023-09-12T03:43:26;100688.44;;;19.28;100.00
8160;BME280;27404;52.398;9.646;2023-09-12T03:45:51;100671.78;;;19.28;100.00
8160;BME280;27404;52.398;9.646;2023-09-12T03:48:17;100671.31;;;19.20;100.00
8160;BME280;27404;52.398;9.646;2023-09-12T03:50:42;100677.38;;;19.22;100.00
8160;BME280;27404;52.398;9.646;2023-09-12T03:53:08;100676.84;;;19.20;100.00
8160;BME280;27404;52.398;9.646;2023-09-12T03:55:34;100666.31;;;19.22;100.00
8160;BME280;27404;52.398;9.646;2023-09-12T03:57:59;100652.13;;;19.24;100.00
8160;BME280;27404;52.398;9.646;2023-09-12T04:00:25;100662.53;;;19.13;100.00
8160;BME280;27404;52.398;9.646;2023-09-12T04:02:50;100681.09;;;19.13;100.00
8160;BME280;27404;52.398;9.646;2023-09-12T04:05:16;100683.56;;;19.14;100.00
8160;BME280;27404;52.398;9.646;2023-09-12T04:07:41;100656.75;;;19.09;100.00
8160;BME280;27404;52.398;9.646;2023-09-12T04:10:07;100638.47;;;19.08;100.00
8160;BME280;27404;52.398;9.646;2023-09-12T04:12:33;100643.88;;;18.89;100.00
8160;BME280;27404;52.398;9.646;2023-09-12T04:14:58;100617.69;;;18.76;100.00
8160;BME280;27404;52.398;9.646;2023-09-12T04:17:24;100571.78;;;18.41;100.00
8160;BME280;27404;52.398;9.646;2023-09-12T04:19:49;100585.66;;;18.35;100.00
8160;BME280;27404;52.398;9.646;2023-09-12T04:22:15;100593.50;;;18.23;100.00
8160;BME280;27404;52.398;9.646;2023-09-12T04:24:40;100583.34;;;18.13;100.00
8160;BME280;27404;52.398;9.646;2023-09-12T04:27:06;100585.59;;;18.11;100.00
8160;BME280;27404;52.398;9.646;2023-09-12T04:29:34;100594.53;;;17.92;100.00
8160;BME280;27404;52.398;9.646;2023-09-12T04:32:04;100594.81;;;17.91;100.00
8160;BME280;27404;52.398;9.646;2023-09-12T04:34:30;100593.97;;;17.90;100.00
8160;BME280;27404;52.398;9.646;2023-09-12T04:36:56;100601.53;;;17.80;100.00
8160;BME280;27404;52.398;9.646;2023-09-12T04:39:21;100591.88;;;17.77;100.00
8160;BME280;27404;52.398;9.646;2023-09-12T04:41:47;100585.50;;;17.76;100.00
8160;BME280;27404;52.398;9.646;2023-09-12T04:44:12;100580.50;;;17.79;100.00
8160;BME280;27404;52.398;9.646;2023-09-12T04:46:38;100578.59;;;17.79;100.00
8160;BME280;27404;52.398;9.646;2023-09-12T04:49:03;100574.16;;;17.78;100.00
8160;BME280;27404;52.398;9.646;2023-09-12T04:51:29;100574.44;;;17.76;100.00
8160;BME280;27404;52.398;9.646;2023-09-12T04:53:54;100576.41;;;17.76;100.00
8160;BME280;27404;52.398;9.646;2023-09-12T04:56:20;100566.16;;;17.76;100.00
8160;BME280;27404;52.398;9.646;2023-09-12T04:58:46;100571.66;;;17.82;100.00
8160;BME280;27404;52.398;9.646;2023-09-12T05:01:11;100581.31;;;17.84;100.00
8160;BME280;27404;52.398;9.646;2023-09-12T05:03:37;100582.97;;;17.85;100.00
8160;BME280;27404;52.398;9.646;2023-09-12T05:06:02;100595.09;;;17.89;100.00
8160;BME280;27404;52.398;9.646;2023-09-12T05:08:29;100600.63;;;17.89;100.00
8160;BME280;27404;52.398;9.646;2023-09-12T05:10:54;100615.28;;;17.90;100.00
8160;BME280;27404;52.398;9.646;2023-09-12T05:13:20;100638.53;;;17.89;100.00
8160;BME280;27404;52.398;9.646;2023-09-12T05:15:46;100641.00;;;17.90;100.00
8160;BME280;27404;52.398;9.646;2023-09-12T05:18:12;100652.91;;;17.91;100.00
8160;BME280;27404;52.398;9.646;2023-09-12T05:20:37;100653.22;;;17.84;100.00
8160;BME280;27404;52.398;9.646;2023-09-12T05:23:03;100663.75;;;17.82;100.00
8160;BME280;27404;52.398;9.646;2023-09-12T05:25:28;100672.28;;;17.86;100.00
8160;BME280;27404;52.398;9.646;2023-09-12T05:27:55;100702.69;;;17.86;100.00
8160;BME280;27404;52.398;9.646;2023-09-12T05:30:20;100687.78;;;17.82;100.00
8160;BME280;27404;52.398;9.646;2023-09-12T05:32:46;100693.28;;;17.92;100.00
8160;BME280;27404;52.398;9.646;2023-09-12T05:35:11;100683.03;;;17.92;100.00
8160;BME280;27404;52.398;9.646;2023-09-12T05:37:37;100686.09;;;17.86;100.00
8160;BME280;27404;52.398;9.646;2023-09-12T05:40:03;100703.81;;;17.85;100.00
8160;BME280;27404;52.398;9.646;2023-09-12T05:42:29;100696.34;;;17.85;100.00
8160;BME280;27404;52.398;9.646;2023-09-12T05:44:54;100693.09;;;17.73;100.00
8160;BME280;27404;52.398;9.646;2023-09-12T05:47:20;100712.16;;;17.69;100.00
8160;BME280;27404;52.398;9.646;2023-09-12T05:49:46;100719.63;;;17.69;100.00
8160;BME280;27404;52.398;9.646;2023-09-12T05:52:12;100725.16;;;17.69;100.00
8160;BME280;27404;52.398;9.646;2023-09-12T05:54:38;100696.09;;;17.76;100.00
8160;BME280;27404;52.398;9.646;2023-09-12T05:57:04;100685.56;;;17.84;100.00
8160;BME280;27404;52.398;9.646;2023-09-12T05:59:30;100695.81;;;17.83;100.00
8160;BME280;27404;52.398;9.646;2023-09-12T06:01:55;100719.31;;;17.75;100.00
8160;BME280;27404;52.398;9.646;2023-09-12T06:04:21;100712.16;;;17.69;100.00
8160;BME280;27404;52.398;9.646;2023-09-12T06:06:47;100702.75;;;17.70;100.00
8160;BME280;27404;52.398;9.646;2023-09-12T06:09:12;100693.06;;;17.78;100.00
8160;BME280;27404;52.398;9.646;2023-09-12T06:11:38;100682.03;;;17.73;100.00
8160;BME280;27404;52.398;9.646;2023-09-12T06:14:03;100680.94;;;17.69;100.00
8160;BME280;27404;52.398;9.646;2023-09-12T06:16:29;100687.28;;;17.64;100.00
8160;BME280;27404;52.398;9.646;2023-09-12T06:18:55;100685.91;;;17.67;100.00
8160;BME280;27404;52.398;9.646;2023-09-12T06:21:21;100667.69;;;17.66;100.00
8160;BME280;27404;52.398;9.646;2023-09-12T06:26:35;100651.69;;;17.57;100.00
8160;BME280;27404;52.398;9.646;2023-09-12T06:29:01;100664.16;;;17.50;100.00
8160;BME280;27404;52.398;9.646;2023-09-12T06:31:27;100674.13;;;17.45;100.00
8160;BME280;27404;52.398;9.646;2023-09-12T06:33:53;100654.19;;;17.54;100.00
8160;BME280;27404;52.398;9.646;2023-09-12T06:36:18;100655.03;;;17.44;100.00
8160;BME280;27404;52.398;9.646;2023-09-12T06:38:44;100656.97;;;17.43;100.00
8160;BME280;27404;52.398;9.646;2023-09-12T06:41:09;100642.06;;;17.44;100.00
8160;BME280;27404;52.398;9.646;2023-09-12T06:43:34;100658.06;;;17.48;100.00
8160;BME280;27404;52.398;9.646;2023-09-12T06:46:00;100659.72;;;17.49;100.00
8160;BME280;27404;52.398;9.646;2023-09-12T06:48:25;100652.00;;;17.45;100.00
8160;BME280;27404;52.398;9.646;2023-09-12T06:50:53;100631.84;;;17.40;100.00
8160;BME280;27404;52.398;9.646;2023-09-12T06:53:19;100623.25;;;17.46;100.00
8160;BME280;27404;52.398;9.646;2023-09-12T06:55:44;100619.63;;;17.56;100.00
8160;BME280;27404;52.398;9.646;2023-09-12T06:58:09;100613.22;;;17.61;100.00
8160;BME280;27404;52.398;9.646;2023-09-12T07:00:36;100602.97;;;17.67;100.00
8160;BME280;27404;52.398;9.646;2023-09-12T07:03:02;100584.69;;;17.76;100.00
8160;BME280;27404;52.398;9.646;2023-09-12T07:05:27;100568.88;;;17.82;100.00
8160;BME280;27404;52.398;9.646;2023-09-12T07:07:53;100554.69;;;17.94;100.00
8160;BME280;27404;52.398;9.646;2023-09-12T07:10:18;100573.44;;;18.07;100.00
8160;BME280;27404;52.398;9.646;2023-09-12T07:12:44;100547.59;;;18.22;100.00
8160;BME280;27404;52.398;9.646;2023-09-12T07:15:09;100538.44;;;18.27;100.00
8160;BME280;27404;52.398;9.646;2023-09-12T07:17:35;100539.91;;;18.48;100.00
8160;BME280;27404;52.398;9.646;2023-09-12T07:20:03;100522.88;;;18.60;100.00
8160;BME280;27404;52.398;9.646;2023-09-12T07:22:29;100539.97;;;18.68;100.00
8160;BME280;27404;52.398;9.646;2023-09-12T07:24:55;100530.03;;;18.91;100.00
8160;BME280;27404;52.398;9.646;2023-09-12T07:27:20;100549.16;;;19.17;100.00
8160;BME280;27404;52.398;9.646;2023-09-12T07:29:46;100565.25;;;19.58;100.00
8160;BME280;27404;52.398;9.646;2023-09-12T07:32:11;100577.56;;;19.90;100.00
8160;BME280;27404;52.398;9.646;2023-09-12T07:34:37;100589.03;;;20.03;100.00
8160;BME280;27404;52.398;9.646;2023-09-12T07:37:03;100606.88;;;19.96;100.00
8160;BME280;27404;52.398;9.646;2023-09-12T07:39:28;100597.88;;;20.05;100.00
8160;BME280;27404;52.398;9.646;2023-09-12T07:41:54;100605.56;;;19.94;100.00
8160;BME280;27404;52.398;9.646;2023-09-12T07:44:20;100603.31;;;19.96;100.00
8160;BME280;27404;52.398;9.646;2023-09-12T07:46:46;100599.47;;;19.92;100.00
8160;BME280;27404;52.398;9.646;2023-09-12T07:49:11;100595.69;;;19.82;100.00
8160;BME280;27404;52.398;9.646;2023-09-12T07:51:37;100608.75;;;19.82;100.00
8160;BME280;27404;52.398;9.646;2023-09-12T07:54:02;100611.44;;;19.87;100.00
8160;BME280;27404;52.398;9.646;2023-09-12T07:56:28;100597.97;;;20.00;100.00
8160;BME280;27404;52.398;9.646;2023-09-12T07:58:54;100619.03;;;20.01;100.00
8160;BME280;27404;52.398;9.646;2023-09-12T08:01:20;100630.50;;;19.94;100.00
8160;BME280;27404;52.398;9.646;2023-09-12T08:03:46;100662.09;;;19.98;100.00
8160;BME280;27404;52.398;9.646;2023-09-12T08:06:12;100698.56;;;19.86;100.00
8160;BME280;27404;52.398;9.646;2023-09-12T08:08:38;100707.59;;;19.73;100.00
8160;BME280;27404;52.398;9.646;2023-09-12T08:11:04;100709.00;;;19.70;100.00
8160;BME280;27404;52.398;9.646;2023-09-12T08:13:30;100706.50;;;19.74;100.00
8160;BME280;27404;52.398;9.646;2023-09-12T08:15:56;100738.44;;;19.66;100.00
8160;BME280;27404;52.398;9.646;2023-09-12T08:18:26;100738.28;;;19.57;100.00
8160;BME280;27404;52.398;9.646;2023-09-12T08:20:53;100733.00;;;19.56;100.00
8160;BME280;27404;52.398;9.646;2023-09-12T08:23:18;100718.34;;;19.55;100.00
8160;BME280;27404;52.398;9.646;2023-09-12T08:25:44;100748.31;;;19.53;100.00
8160;BME280;27404;52.398;9.646;2023-09-12T08:28:09;100773.41;;;19.37;100.00
8160;BME280;27404;52.398;9.646;2023-09-12T08:30:34;100766.59;;;19.24;100.00
8160;BME280;27404;52.398;9.646;2023-09-12T08:33:00;100761.88;;;19.25;100.00
8160;BME280;27404;52.398;9.646;2023-09-12T08:35:28;100757.94;;;19.31;100.00
8160;BME280;27404;52.398;9.646;2023-09-12T08:37:53;100765.09;;;19.37;100.00
8160;BME280;27404;52.398;9.646;2023-09-12T08:40:19;100768.25;;;19.26;100.00
8160;BME280;27404;52.398;9.646;2023-09-12T08:42:45;100770.50;;;19.23;100.00
8160;BME280;27404;52.398;9.646;2023-09-12T08:45:16;100768.88;;;19.17;100.00
8160;BME280;27404;52.398;9.646;2023-09-12T08:47:43;100768.78;;;18.98;100.00
8160;BME280;27404;52.398;9.646;2023-09-12T08:50:14;100774.31;;;18.93;100.00
8160;BME280;27404;52.398;9.646;2023-09-12T08:52:40;100768.66;;;18.74;100.00
8160;BME280;27404;52.398;9.646;2023-09-12T08:55:07;100759.91;;;18.56;100.00
8160;BME280;27404;52.398;9.646;2023-09-12T08:57:33;100749.94;;;18.55;100.00
8160;BME280;27404;52.398;9.646;2023-09-12T09:00:01;100776.84;;;18.49;100.00
8160;BME280;27404;52.398;9.646;2023-09-12T09:02:35;100772.97;;;18.50;100.00
8160;BME280;27404;52.398;9.646;2023-09-12T09:05:02;100774.38;;;18.43;100.00
8160;BME280;27404;52.398;9.646;2023-09-12T09:07:32;100787.13;;;18.39;100.00
8160;BME280;27404;52.398;9.646;2023-09-12T09:10:01;100787.66;;;18.41;100.00
8160;BME280;27404;52.398;9.646;2023-09-12T09:12:28;100788.50;;;18.41;100.00
8160;BME280;27404;52.398;9.646;2023-09-12T09:14:53;100797.34;;;18.43;100.00
8160;BME280;27404;52.398;9.646;2023-09-12T09:17:19;100816.22;;;18.36;100.00
8160;BME280;27404;52.398;9.646;2023-09-12T09:19:45;100802.66;;;18.34;100.00
8160;BME280;27404;52.398;9.646;2023-09-12T09:22:11;100791.31;;;18.36;100.00
8160;BME280;27404;52.398;9.646;2023-09-12T09:24:36;100815.38;;;18.35;100.00
8160;BME280;27404;52.398;9.646;2023-09-12T09:27:02;100804.31;;;18.30;100.00
8160;BME280;27404;52.398;9.646;2023-09-12T09:29:28;100831.75;;;18.27;100.00
8160;BME280;27404;52.398;9.646;2023-09-12T09:32:00;100869.97;;;18.09;100.00
8160;BME280;27404;52.398;9.646;2023-09-12T09:34:30;100854.78;;;18.07;100.00
8160;BME280;27404;52.398;9.646;2023-09-12T09:36:57;100810.25;;;18.03;100.00
8160;BME280;27404;52.398;9.646;2023-09-12T09:39:25;100831.00;;;18.00;100.00
8160;BME280;27404;52.398;9.646;2023-09-12T09:41:53;100824.91;;;17.98;100.00
8160;BME280;27404;52.398;9.646;2023-09-12T09:44:21;100780.91;;;18.07;100.00
8160;BME280;27404;52.398;9.646;2023-09-12T09:46:50;100788.13;;;17.92;100.00
8160;BME280;27404;52.398;9.646;2023-09-12T09:49:20;100812.44;;;17.96;100.00
8160;BME280;27404;52.398;9.646;2023-09-12T09:51:45;100846.75;;;17.95;100.00
8160;BME280;27404;52.398;9.646;2023-09-12T09:54:14;100831.88;;;17.80;100.00
8160;BME280;27404;52.398;9.646;2023-09-12T09:56:47;100800.88;;;17.83;100.00
8160;BME280;27404;52.398;9.646;2023-09-12T09:59:14;100812.78;;;17.79;100.00
8160;BME280;27404;52.398;9.646;2023-09-12T10:01:41;100816.38;;;17.74;100.00
8160;BME280;27404;52.398;9.646;2023-09-12T10:04:08;100784.00;;;17.80;100.00
8160;BME280;27404;52.398;9.646;2023-09-12T10:06:36;100792.03;;;17.86;100.00
8160;BME280;27404;52.398;9.646;2023-09-12T10:09:06;100800.88;;;17.88;100.00
8160;BME280;27404;52.398;9.646;2023-09-12T10:11:33;100804.72;;;17.92;100.00
8160;BME280;27404;52.398;9.646;2023-09-12T10:14:00;100811.34;;;17.91;100.00
8160;BME280;27404;52.398;9.646;2023-09-12T10:16:48;100817.19;;;17.90;100.00
8160;BME280;27404;52.398;9.646;2023-09-12T10:19:24;100798.06;;;17.94;100.00
8160;BME280;27404;52.398;9.646;2023-09-12T10:24:31;100778.66;;;18.19;100.00
8160;BME280;27404;52.398;9.646;2023-09-12T10:26:58;100792.50;;;18.14;100.00
8160;BME280;27404;52.398;9.646;2023-09-12T10:29:24;100785.06;;;18.10;100.00
8160;BME280;27404;52.398;9.646;2023-09-12T10:31:49;100772.91;;;18.05;100.00
8160;BME280;27404;52.398;9.646;2023-09-12T10:34:16;100775.69;;;18.00;100.00
8160;BME280;27404;52.398;9.646;2023-09-12T10:36:42;100750.50;;;18.02;100.00
8160;BME280;27404;52.398;9.646;2023-09-12T10:39:09;100720.38;;;18.00;100.00
8160;BME280;27404;52.398;9.646;2023-09-12T10:41:39;100739.16;;;18.09;100.00
8160;BME280;27404;52.398;9.646;2023-09-12T10:44:15;100750.72;;;18.21;100.00
8160;BME280;27404;52.398;9.646;2023-09-12T10:46:43;100763.94;;;18.24;100.00
8160;BME280;27404;52.398;9.646;2023-09-12T10:49:13;100759.22;;;18.30;100.00
8160;BME280;27404;52.398;9.646;2023-09-12T10:51:43;100758.63;;;18.38;100.00
8160;BME280;27404;52.398;9.646;2023-09-12T10:54:09;100756.06;;;18.52;100.00
8160;BME280;27404;52.398;9.646;2023-09-12T10:56:37;100776.81;;;18.55;100.00
8160;BME280;27404;52.398;9.646;2023-09-12T11:01:44;100744.19;;;18.46;100.00
8160;BME280;27404;52.398;9.646;2023-09-12T11:06:46;100754.44;;;18.41;100.00
8160;BME280;27404;52.398;9.646;2023-09-12T11:11:43;100815.41;;;18.25;100.00
8160;BME280;27404;52.398;9.646;2023-09-12T11:14:10;100812.44;;;18.11;100.00
8160;BME280;27404;52.398;9.646;2023-09-12T11:16:36;100802.78;;;17.98;100.00
8160;BME280;27404;52.398;9.646;2023-09-12T11:21:40;100807.78;;;17.86;100.00
8160;BME280;27404;52.398;9.646;2023-09-12T11:24:06;100809.44;;;17.87;100.00
8160;BME280;27404;52.398;9.646;2023-09-12T11:26:32;100787.88;;;17.89;100.00
8160;BME280;27404;52.398;9.646;2023-09-12T11:29:10;100822.16;;;17.83;100.00
8160;BME280;27404;52.398;9.646;2023-09-12T11:31:37;100830.75;;;17.81;100.00
8160;BME280;27404;52.398;9.646;2023-09-12T11:34:09;100826.03;;;17.82;100.00
8160;BME280;27404;52.398;9.646;2023-09-12T11:36:42;100814.13;;;17.91;100.00
8160;BME280;27404;52.398;9.646;2023-09-12T11:39:28;100801.13;;;18.02;100.00
8160;BME280;27404;52.398;9.646;2023-09-12T11:41:56;100811.88;;;18.09;100.00
8160;BME280;27404;52.398;9.646;2023-09-12T11:44:22;100804.41;;;18.15;100.00
8160;BME280;27404;52.398;9.646;2023-09-12T11:46:48;100810.50;;;18.17;100.00
8160;BME280;27404;52.398;9.646;2023-09-12T11:49:17;100807.19;;;18.15;100.00
8160;BME280;27404;52.398;9.646;2023-09-12T11:51:53;100807.19;;;18.10;100.00
8160;BME280;27404;52.398;9.646;2023-09-12T11:54:25;100796.09;;;18.20;100.00
8160;BME280;27404;52.398;9.646;2023-09-12T11:56:52;100760.91;;;18.26;100.00
8160;BME280;27404;52.398;9.646;2023-09-12T11:59:37;100733.81;;;18.23;100.00
8160;BME280;27404;52.398;9.646;2023-09-12T12:02:09;100729.19;;;17.97;100.00
8160;BME280;27404;52.398;9.646;2023-09-12T12:04:35;100712.38;;;17.88;100.00
8160;BME280;27404;52.398;9.646;2023-09-12T12:07:01;100738.38;;;17.87;100.00
8160;BME280;27404;52.398;9.646;2023-09-12T12:09:28;100735.00;;;17.96;100.00
8160;BME280;27404;52.398;9.646;2023-09-12T12:11:53;100707.34;;;17.96;100.00
8160;BME280;27404;52.398;9.646;2023-09-12T12:14:18;100704.88;;;17.94;100.00
8160;BME280;27404;52.398;9.646;2023-09-12T12:16:47;100718.94;;;17.98;100.00
8160;BME280;27404;52.398;9.646;2023-09-12T12:19:13;100721.16;;;18.06;100.00
8160;BME280;27404;52.398;9.646;2023-09-12T12:21:42;100712.25;;;18.19;100.00
8160;BME280;27404;52.398;9.646;2023-09-12T12:24:13;100702.22;;;18.29;100.00
8160;BME280;27404;52.398;9.646;2023-09-12T12:26:43;100702.19;;;18.34;100.00
8160;BME280;27404;52.398;9.646;2023-09-12T12:29:09;100701.00;;;18.50;100.00
8160;BME280;27404;52.398;9.646;2023-09-12T12:31:36;100697.00;;;18.62;100.00
8160;BME280;27404;52.398;9.646;2023-09-12T12:34:01;100698.28;;;18.80;100.00
8160;BME280;27404;52.398;9.646;2023-09-12T12:36:29;100698.28;;;18.80;100.00
8160;BME280;27404;52.398;9.646;2023-09-12T12:38:54;100692.16;;;18.83;100.00
8160;BME280;27404;52.398;9.646;2023-09-12T12:41:27;100699.28;;;18.89;100.00
8160;BME280;27404;52.398;9.646;2023-09-12T12:43:56;100689.03;;;18.90;100.00
8160;BME280;27404;52.398;9.646;2023-09-12T12:46:24;100689.25;;;18.93;100.00
8160;BME280;27404;52.398;9.646;2023-09-12T12:48:50;100685.97;;;18.91;100.00
8160;BME280;27404;52.398;9.646;2023-09-12T12:51:18;100682.38;;;18.96;100.00
8160;BME280;27404;52.398;9.646;2023-09-12T12:53:46;100681.06;;;19.18;100.00
8160;BME280;27404;52.398;9.646;2023-09-12T12:56:28;100686.34;;;19.38;100.00
8160;BME280;27404;52.398;9.646;2023-09-12T12:58:55;100677.75;;;19.64;100.00
8160;BME280;27404;52.398;9.646;2023-09-12T13:01:22;100672.38;;;19.73;100.00
8160;BME280;27404;52.398;9.646;2023-09-12T13:03:48;100662.91;;;19.98;100.00
8160;BME280;27404;52.398;9.646;2023-09-12T13:06:15;100660.16;;;20.18;100.00